createdAt,value
2018-04-06T00:02:04.076Z,85.00
2018-04-06T00:04:30.204Z,85.20
2018-04-06T00:06:56.317Z,85.10
2018-04-06T00:09:23.161Z,85.00
2018-04-06T00:11:49.265Z,85.60
2018-04-06T00:14:15.400Z,84.90
2018-04-06T00:16:41.502Z,84.80
2018-04-06T00:19:08.355Z,84.40
2018-04-06T00:21:35.230Z,84.30
2018-04-06T00:24:01.360Z,84.30
2018-04-06T00:26:27.493Z,84.50
2018-04-06T00:28:54.315Z,84.60
2018-04-06T00:31:20.404Z,84.60
2018-04-06T00:33:46.508Z,84.50
2018-04-06T00:36:13.359Z,84.50
2018-04-06T00:38:40.202Z,84.60
2018-04-06T00:41:06.314Z,84.60
2018-04-06T00:43:32.414Z,84.70
2018-04-06T00:45:58.551Z,84.50
2018-04-06T00:48:24.635Z,84.20
2018-04-06T00:50:50.757Z,84.30
2018-04-06T00:53:29.128Z,84.30
2018-04-06T00:55:55.992Z,84.10
2018-04-06T00:58:22.117Z,84.10
2018-04-06T01:00:48.199Z,84.30
2018-04-06T01:03:14.310Z,84.30
2018-04-06T01:05:41.140Z,84.30
2018-04-06T01:08:08.048Z,84.40
2018-04-06T01:10:34.102Z,84.40
2018-04-06T01:13:00.267Z,84.30
2018-04-06T01:15:26.350Z,84.10
2018-04-06T01:17:53.189Z,84.00
2018-04-06T01:20:20.038Z,84.00
2018-04-06T01:22:46.135Z,84.00
2018-04-06T01:27:51.528Z,84.20
2018-04-06T01:30:17.619Z,84.30
2018-04-06T01:32:43.718Z,84.50
2018-04-06T01:35:09.815Z,84.50
2018-04-06T01:37:35.906Z,84.80
2018-04-06T01:40:02.038Z,85.50
2018-04-06T01:42:28.162Z,85.00
2018-04-06T01:44:54.277Z,85.30
2018-04-06T01:47:20.346Z,84.80
2018-04-06T01:49:46.470Z,85.20
2018-04-06T01:52:12.570Z,85.20
2018-04-06T01:54:39.409Z,85.60
2018-04-06T01:57:06.258Z,85.50
2018-04-06T01:59:32.398Z,85.40
2018-04-06T02:01:58.498Z,85.30
2018-04-06T02:04:24.638Z,85.40
2018-04-06T02:06:50.778Z,85.60
2018-04-06T02:09:16.889Z,85.70
2018-04-06T02:11:42.989Z,85.70
2018-04-06T02:14:09.098Z,85.70
2018-04-06T02:16:35.215Z,85.70
2018-04-06T02:19:01.326Z,85.60
2018-04-06T02:21:27.412Z,85.80
2018-04-06T02:23:53.495Z,85.70
2018-04-06T02:26:19.615Z,85.70
2018-04-06T02:28:45.747Z,85.70
2018-04-06T02:31:12.610Z,85.80
2018-04-06T02:33:38.757Z,85.80
2018-04-06T02:36:05.584Z,86.00
2018-04-06T02:38:31.694Z,86.00
2018-04-06T02:40:57.772Z,86.30
2018-04-06T02:43:23.867Z,86.70
2018-04-06T02:45:50.015Z,86.50
2018-04-06T02:48:16.103Z,86.70
2018-04-06T02:50:42.939Z,85.90
2018-04-06T02:53:09.076Z,85.90
2018-04-06T02:55:35.953Z,85.90
2018-04-06T02:58:02.797Z,85.90
2018-04-06T03:00:28.907Z,85.90
2018-04-06T03:02:55.056Z,85.20
2018-04-06T03:05:21.193Z,85.80
2018-04-06T03:07:47.351Z,85.60
2018-04-06T03:10:13.500Z,85.30
2018-04-06T03:12:40.337Z,85.20
2018-04-06T03:15:06.436Z,85.20
2018-04-06T03:17:32.567Z,85.40
2018-04-06T03:19:58.656Z,85.20
2018-04-06T03:22:24.755Z,85.30
2018-04-06T03:24:50.894Z,85.90
2018-04-06T03:27:16.988Z,86.00
2018-04-06T03:29:43.851Z,85.70
2018-04-06T03:32:10.695Z,85.80
2018-04-06T03:34:36.809Z,85.80
2018-04-06T03:37:02.948Z,85.70
2018-04-06T03:39:29.047Z,85.70
2018-04-06T03:41:55.195Z,85.80
2018-04-06T03:44:21.320Z,85.80
2018-04-06T03:46:48.786Z,86.40
2018-04-06T03:49:14.912Z,86.50
2018-04-06T03:51:41.034Z,87.00
2018-04-06T03:54:07.867Z,87.20
2018-04-06T03:56:33.967Z,87.10
2018-04-06T03:59:00.151Z,87.40
2018-04-06T04:01:26.276Z,86.90
2018-04-06T04:03:52.383Z,87.40
2018-04-06T04:06:18.482Z,87.20
2018-04-06T04:08:45.375Z,87.00
2018-04-06T04:11:11.479Z,87.00
2018-04-06T04:13:38.346Z,86.60
2018-04-06T04:16:05.235Z,86.20
2018-04-06T04:18:50.268Z,86.10
2018-04-06T04:21:19.850Z,86.30
2018-04-06T04:23:45.934Z,86.30
2018-04-06T04:26:12.074Z,86.30
2018-04-06T04:28:38.157Z,86.80
2018-04-06T04:31:04.282Z,86.60
2018-04-06T04:33:30.386Z,86.70
2018-04-06T04:35:56.521Z,86.90
2018-04-06T04:38:23.440Z,87.00
2018-04-06T04:40:49.545Z,87.00
2018-04-06T04:43:15.687Z,87.00
2018-04-06T04:45:41.762Z,87.00
2018-04-06T04:48:07.868Z,87.10
2018-04-06T04:50:33.963Z,87.10
2018-04-06T04:53:00.073Z,87.10
2018-04-06T04:55:26.202Z,87.10
2018-04-06T04:57:52.375Z,87.00
2018-04-06T05:00:20.529Z,87.00
2018-04-06T05:02:46.655Z,87.20
2018-04-06T05:05:12.759Z,87.30
2018-04-06T05:07:39.634Z,87.50
2018-04-06T05:10:05.756Z,87.50
2018-04-06T05:12:32.599Z,87.30
2018-04-06T05:14:58.747Z,87.30
2018-04-06T05:17:24.852Z,87.50
2018-04-06T05:19:50.959Z,87.40
2018-04-06T05:22:17.069Z,87.60
2018-04-06T05:24:43.172Z,87.30
2018-04-06T05:27:09.262Z,87.30
2018-04-06T05:29:35.408Z,86.90
2018-04-06T05:32:01.500Z,87.20
2018-04-06T05:34:28.371Z,87.20
2018-04-06T05:36:54.512Z,87.10
2018-04-06T05:39:20.626Z,87.50
2018-04-06T05:41:46.727Z,87.60
2018-04-06T05:44:12.835Z,87.50
2018-04-06T05:46:38.947Z,87.40
2018-04-06T05:49:05.030Z,87.40
2018-04-06T05:51:31.132Z,87.20
2018-04-06T05:53:58.023Z,87.10
2018-04-06T05:56:24.166Z,87.10
2018-04-06T05:58:50.283Z,86.90
2018-04-06T06:01:16.375Z,86.80
2018-04-06T06:03:42.478Z,86.40
2018-04-06T06:06:08.588Z,86.20
2018-04-06T06:08:35.416Z,85.40
2018-04-06T06:11:01.540Z,85.20
2018-04-06T06:13:27.705Z,85.10
2018-04-06T06:15:54.589Z,84.70
2018-04-06T06:18:20.714Z,84.70
2018-04-06T06:20:47.620Z,84.20
2018-04-06T06:23:13.705Z,84.20
2018-04-06T06:25:40.583Z,84.30
2018-04-06T06:28:06.687Z,83.60
2018-04-06T06:30:32.816Z,82.70
2018-04-06T06:32:58.926Z,82.00
2018-04-06T06:35:25.019Z,81.50
2018-04-06T06:37:51.952Z,80.80
2018-04-06T06:40:18.043Z,80.80
2018-04-06T06:42:44.212Z,80.50
2018-04-06T06:45:10.318Z,79.30
2018-04-06T06:47:36.430Z,79.20
2018-04-06T06:50:03.284Z,76.80
2018-04-06T06:52:30.189Z,76.60
2018-04-06T06:54:56.318Z,76.40
2018-04-06T06:57:22.448Z,75.40
2018-04-06T06:59:48.839Z,75.10
2018-04-06T07:02:14.941Z,73.80
2018-04-06T07:04:41.086Z,73.30
2018-04-06T07:07:07.219Z,73.30
2018-04-06T07:09:33.323Z,72.40
2018-04-06T07:11:59.408Z,72.00
2018-04-06T07:14:25.515Z,71.70
2018-04-06T07:16:51.638Z,71.30
2018-04-06T07:19:18.549Z,70.90
2018-04-06T07:21:44.709Z,70.90
2018-04-06T07:24:10.843Z,69.70
2018-04-06T07:26:36.971Z,69.70
2018-04-06T07:29:03.080Z,69.60
2018-04-06T07:31:29.204Z,70.10
2018-04-06T07:33:55.355Z,69.40
2018-04-06T07:36:21.531Z,69.10
2018-04-06T07:38:47.649Z,69.10
2018-04-06T07:41:13.765Z,68.00
2018-04-06T07:43:39.907Z,66.80
2018-04-06T07:46:06.038Z,65.70
2018-04-06T07:48:32.281Z,65.90
2018-04-06T07:50:58.507Z,65.30
2018-04-06T07:53:24.715Z,64.70
2018-04-06T07:55:50.835Z,63.70
2018-04-06T07:58:16.958Z,64.10
2018-04-06T08:00:43.122Z,62.00
2018-04-06T08:03:09.250Z,62.00
2018-04-06T08:05:35.401Z,60.30
2018-04-06T08:08:01.549Z,59.90
2018-04-06T08:10:27.718Z,59.50
2018-04-06T08:12:54.578Z,59.00
2018-04-06T08:15:20.741Z,58.90
2018-04-06T08:17:47.586Z,59.00
2018-04-06T08:20:13.817Z,59.20
2018-04-06T08:22:40.090Z,59.00
2018-04-06T08:25:06.257Z,58.70
2018-04-06T08:27:32.327Z,58.70
2018-04-06T08:29:59.211Z,58.00
2018-04-06T08:32:25.330Z,58.00
2018-04-06T08:34:51.501Z,57.80
2018-04-06T08:37:18.318Z,55.70
2018-04-06T08:39:44.424Z,55.70
2018-04-06T08:42:10.573Z,55.70
2018-04-06T08:44:36.751Z,53.80
2018-04-06T08:47:02.848Z,54.40
2018-04-06T08:49:28.944Z,54.20
2018-04-06T08:51:55.096Z,53.70
2018-04-06T08:54:21.287Z,53.50
2018-04-06T08:56:48.174Z,51.70
2018-04-06T08:59:14.339Z,51.70
2018-04-06T09:01:41.226Z,50.60
2018-04-06T09:04:07.335Z,50.60
2018-04-06T09:06:33.462Z,51.00
2018-04-06T09:08:59.615Z,50.00
2018-04-06T09:11:25.787Z,50.00
2018-04-06T09:13:51.914Z,47.90
2018-04-06T09:16:18.039Z,48.50
2018-04-06T09:18:44.184Z,48.30
2018-04-06T09:21:10.401Z,46.90
2018-04-06T09:23:36.443Z,46.50
2018-04-06T09:26:02.563Z,46.30
2018-04-06T09:28:28.747Z,46.80
2018-04-06T09:30:54.856Z,47.80
2018-04-06T09:33:21.016Z,46.20
2018-04-06T09:35:47.135Z,46.10
2018-04-06T09:38:13.363Z,45.30
2018-04-06T09:40:39.487Z,44.60
2018-04-06T09:43:05.774Z,42.50
2018-04-06T09:45:31.890Z,42.00
2018-04-06T09:47:57.998Z,41.80
2018-04-06T09:50:24.117Z,42.50
2018-04-06T09:52:50.254Z,44.80
2018-04-06T09:55:17.115Z,41.40
2018-04-06T09:57:43.305Z,41.30
2018-04-06T10:00:09.414Z,40.50
2018-04-06T10:02:39.530Z,39.70
2018-04-06T10:05:06.368Z,38.60
2018-04-06T10:07:32.466Z,38.60
2018-04-06T10:09:58.574Z,39.60
2018-04-06T10:12:24.719Z,39.30
2018-04-06T10:14:50.864Z,38.10
2018-04-06T10:17:17.045Z,39.20
2018-04-06T10:19:43.247Z,39.10
2018-04-06T10:22:09.348Z,38.80
2018-04-06T10:24:35.476Z,39.50
2018-04-06T10:27:01.595Z,39.50
2018-04-06T10:29:27.720Z,40.00
2018-04-06T10:31:53.859Z,38.00
2018-04-06T10:34:20.040Z,37.30
2018-04-06T10:36:46.132Z,37.50
2018-04-06T10:39:12.323Z,37.40
2018-04-06T10:41:38.494Z,37.30
2018-04-06T10:44:04.588Z,35.60
2018-04-06T10:46:30.692Z,36.80
2018-04-06T10:48:56.779Z,36.40
2018-04-06T10:51:23.618Z,35.10
2018-04-06T10:53:49.713Z,35.00
2018-04-06T10:56:15.815Z,34.30
2018-04-06T10:58:42.649Z,34.30
2018-04-06T11:01:08.747Z,34.30
2018-04-06T11:03:34.858Z,34.30
2018-04-06T11:06:00.950Z,36.10
2018-04-06T11:08:27.064Z,36.60
2018-04-06T11:10:53.902Z,36.60
2018-04-06T11:13:19.995Z,36.60
2018-04-06T11:15:46.142Z,36.30
2018-04-06T11:18:12.238Z,36.80
2018-04-06T11:20:38.480Z,36.70
2018-04-06T11:23:04.732Z,36.10
2018-04-06T11:25:31.045Z,35.50
2018-04-06T11:27:57.312Z,35.30
2018-04-06T11:30:23.536Z,34.60
2018-04-06T11:32:49.647Z,34.80
2018-04-06T11:35:15.822Z,35.30
2018-04-06T11:37:41.951Z,34.30
2018-04-06T11:40:08.110Z,33.40
2018-04-06T11:42:34.209Z,33.30
2018-04-06T11:45:00.340Z,33.60
2018-04-06T11:47:27.267Z,33.60
2018-04-06T11:49:53.479Z,33.60
2018-04-06T11:52:19.622Z,33.50
2018-04-06T11:54:45.736Z,33.80
2018-04-06T11:57:11.883Z,32.90
2018-04-06T11:59:38.068Z,33.80
2018-04-06T12:02:04.187Z,32.80
2018-04-06T12:04:30.399Z,33.70
2018-04-06T12:06:57.073Z,32.30
2018-04-06T12:09:23.558Z,31.10
2018-04-06T12:11:50.413Z,31.90
2018-04-06T12:14:17.252Z,31.60
2018-04-06T12:16:43.460Z,31.60
2018-04-06T12:19:09.673Z,29.90
2018-04-06T12:21:35.780Z,30.90
2018-04-06T12:24:01.875Z,30.10
2018-04-06T12:26:28.015Z,31.30
2018-04-06T12:28:54.127Z,32.20
2018-04-06T12:31:20.246Z,32.20
2018-04-06T12:33:47.102Z,29.70
2018-04-06T12:36:13.947Z,30.40
2018-04-06T12:38:40.156Z,30.40
2018-04-06T12:41:06.272Z,32.70
2018-04-06T12:43:32.381Z,30.50
2018-04-06T12:45:59.235Z,30.50
2018-04-06T12:48:25.381Z,30.50
2018-04-06T12:50:51.523Z,31.40
2018-04-06T12:53:17.622Z,30.60
2018-04-06T12:55:43.720Z,30.00
2018-04-06T12:58:09.842Z,30.10
2018-04-06T13:00:35.955Z,29.20
2018-04-06T13:03:02.075Z,28.70
2018-04-06T13:05:28.176Z,30.00
2018-04-06T13:07:54.307Z,30.40
2018-04-06T13:10:20.512Z,29.40
2018-04-06T13:12:47.267Z,30.90
2018-04-06T13:15:14.114Z,30.50
2018-04-06T13:17:40.223Z,30.50
2018-04-06T13:20:06.394Z,30.20
2018-04-06T13:22:32.531Z,30.90
2018-04-06T13:24:59.374Z,28.90
2018-04-06T13:27:25.534Z,28.40
2018-04-06T13:29:53.030Z,27.30
2018-04-06T13:32:20.261Z,28.80
2018-04-06T13:34:46.377Z,27.80
2018-04-06T13:37:12.529Z,27.50
2018-04-06T13:39:38.598Z,27.30
2018-04-06T13:42:05.465Z,28.20
2018-04-06T13:44:33.223Z,28.20
2018-04-06T13:47:00.971Z,28.40
2018-04-06T13:49:27.129Z,28.40
2018-04-06T13:51:54.037Z,29.50
2018-04-06T13:54:21.108Z,29.40
2018-04-06T13:56:47.732Z,28.50
2018-04-06T13:59:14.174Z,28.80
2018-04-06T14:01:40.331Z,27.90
2018-04-06T14:04:06.646Z,27.80
2018-04-06T14:06:32.819Z,28.70
2018-04-06T14:08:59.691Z,28.00
2018-04-06T14:11:25.845Z,28.00
2018-04-06T14:13:52.019Z,26.60
2018-04-06T14:16:18.891Z,27.40
2018-04-06T14:18:45.124Z,27.30
2018-04-06T14:21:11.266Z,27.00
2018-04-06T14:23:37.423Z,27.80
2018-04-06T14:26:03.544Z,28.40
2018-04-06T14:28:30.748Z,28.50
2018-04-06T14:30:57.246Z,28.60
2018-04-06T14:33:23.400Z,28.90
2018-04-06T14:35:49.497Z,28.70
2018-04-06T14:38:15.600Z,28.50
2018-04-06T14:40:41.731Z,28.30
2018-04-06T14:43:07.929Z,28.20
2018-04-06T14:45:34.051Z,27.80
2018-04-06T14:48:00.199Z,27.80
2018-04-06T14:50:29.244Z,27.60
2018-04-06T14:52:56.345Z,26.70
2018-04-06T14:57:59.600Z,26.40
2018-04-06T19:30:43.820Z,37.80
2018-04-06T19:41:29.648Z,38.50
2018-04-06T19:43:55.770Z,38.80
2018-04-06T19:46:21.850Z,39.30
2018-04-06T19:48:47.954Z,39.10
2018-04-06T19:51:14.782Z,39.40
2018-04-06T19:53:40.926Z,39.30
2018-04-06T19:56:07.539Z,39.20
2018-04-06T19:58:33.763Z,39.20
2018-04-06T20:00:59.848Z,39.30
2018-04-06T20:03:26.039Z,39.20
2018-04-06T20:05:52.160Z,39.50
2018-04-06T20:08:18.394Z,39.70
2018-04-06T20:10:46.148Z,39.60
2018-04-06T20:13:13.173Z,39.80
2018-04-06T20:15:39.412Z,40.00
2018-04-06T20:18:05.607Z,39.90
2018-04-06T20:20:31.795Z,40.20
2018-04-06T20:22:58.261Z,40.10
2018-04-06T20:25:24.464Z,40.40
2018-04-06T20:27:50.692Z,40.40
2018-04-06T20:30:17.476Z,40.40
2018-04-06T20:32:50.332Z,40.60
2018-04-06T20:35:16.553Z,40.40
2018-04-06T20:37:44.573Z,40.50
2018-04-06T20:40:11.933Z,40.70
2018-04-06T20:42:38.895Z,40.90
2018-04-06T20:45:05.073Z,40.90
2018-04-06T20:47:32.039Z,40.90
2018-04-06T20:49:58.264Z,40.80
2018-04-06T20:52:24.448Z,41.10
2018-04-06T20:54:51.148Z,41.10
2018-04-06T20:57:22.625Z,41.30
2018-04-06T20:59:50.997Z,41.20
2018-04-06T21:02:17.213Z,41.30
2018-04-06T21:04:43.779Z,41.70
2018-04-06T21:07:10.100Z,41.70
2018-04-06T21:09:37.178Z,41.70
2018-04-06T21:12:03.379Z,41.60
2018-04-06T21:14:29.519Z,41.70
2018-04-06T21:16:55.737Z,41.60
2018-04-06T21:19:21.863Z,41.90
2018-04-06T21:21:48.073Z,42.00
2018-04-06T21:24:14.335Z,42.30
2018-04-06T21:26:40.525Z,42.40
2018-04-06T21:29:06.749Z,42.20
2018-04-06T21:31:33.023Z,42.20
2018-04-06T21:33:59.269Z,42.70
2018-04-06T21:36:25.633Z,42.60
2018-04-06T21:38:56.564Z,43.00
2018-04-06T21:41:26.107Z,43.00
2018-04-06T21:43:54.814Z,43.10
2018-04-06T21:46:20.957Z,43.50
2018-04-06T21:48:47.143Z,43.20
2018-04-06T21:51:13.317Z,43.40
2018-04-06T21:53:39.472Z,43.70
2018-04-06T21:56:05.859Z,43.70
2018-04-06T21:58:32.132Z,44.10
2018-04-06T22:00:58.402Z,44.20
2018-04-06T22:03:24.589Z,44.10
2018-04-06T22:05:50.788Z,43.90
2018-04-06T22:08:16.997Z,44.30
2018-04-06T22:10:43.459Z,44.40
2018-04-06T22:13:09.682Z,44.80
2018-04-06T22:15:35.904Z,44.80
2018-04-06T22:18:02.059Z,45.00
2018-04-06T22:20:28.981Z,45.20
2018-04-06T22:22:55.232Z,45.10
2018-04-06T22:25:21.416Z,45.00
2018-04-06T22:27:47.629Z,45.30
2018-04-06T22:30:14.727Z,45.70
2018-04-06T22:32:40.947Z,45.70
2018-04-06T22:35:07.092Z,46.10
2018-04-06T22:37:33.267Z,47.10
2018-04-06T22:40:00.349Z,47.20
2018-04-06T22:42:27.537Z,47.50
2018-04-06T22:44:54.988Z,47.70
2018-04-06T22:47:21.096Z,48.20
2018-04-06T22:49:47.647Z,48.20
2018-04-06T22:52:14.043Z,48.10
2018-04-06T22:54:40.638Z,48.30
2018-04-06T22:57:06.886Z,48.20
2018-04-06T22:59:33.260Z,48.40
2018-04-06T23:01:59.489Z,48.60
2018-04-06T23:04:25.809Z,48.80
2018-04-06T23:06:52.118Z,48.80
2018-04-06T23:09:18.968Z,48.70
2018-04-06T23:11:45.970Z,49.00
2018-04-06T23:14:12.200Z,49.00
2018-04-06T23:16:38.485Z,49.00
2018-04-06T23:19:04.695Z,49.40
2018-04-06T23:21:30.920Z,49.40
2018-04-06T23:23:57.101Z,49.60
2018-04-06T23:26:24.140Z,49.80
2018-04-06T23:28:50.402Z,50.10
2018-04-06T23:31:16.537Z,50.40
2018-04-06T23:33:42.673Z,50.40
2018-04-06T23:36:08.798Z,50.40
2018-04-06T23:38:34.938Z,50.60
2018-04-06T23:41:01.075Z,50.90
2018-04-06T23:43:27.186Z,50.80
2018-04-06T23:45:53.315Z,50.80
2018-04-06T23:48:20.155Z,50.90
2018-04-06T23:50:46.277Z,51.50
2018-04-06T23:53:12.394Z,50.90
2018-04-06T23:55:38.520Z,51.10
2018-04-06T23:58:04.673Z,51.10
